sensor_id;sensor_type;location;lat;lon;timestamp;P1;durP1;ratioP1;P2;durP2;ratioP2
3795;SDS011;1913;50.660;7.834;2022-12-17T00:02:02;40.03;;;13.83;;
3795;SDS011;1913;50.660;7.834;2022-12-17T00:04:46;47.47;;;15.90;;
3795;SDS011;1913;50.660;7.834;2022-12-17T00:07:31;54.10;;;16.40;;
3795;SDS011;1913;50.660;7.834;2022-12-17T00:10:15;61.53;;;19.23;;
3795;SDS011;1913;50.660;7.834;2022-12-17T00:12:59;51.30;;;17.50;;
3795;SDS011;1913;50.660;7.834;2022-12-17T00:15:49;92.07;;;21.37;;
3795;SDS011;1913;50.660;7.834;2022-12-17T00:18:34;103.17;;;21.13;;
3795;SDS011;1913;50.660;7.834;2022-12-17T00:21:18;87.50;;;21.00;;
3795;SDS011;1913;50.660;7.834;2022-12-17T00:24:03;74.67;;;22.03;;
3795;SDS011;1913;50.660;7.834;2022-12-17T00:26:47;88.17;;;24.53;;
3795;SDS011;1913;50.660;7.834;2022-12-17T00:29:31;75.67;;;24.23;;
3795;SDS011;1913;50.660;7.834;2022-12-17T00:32:15;61.60;;;20.10;;
3795;SDS011;1913;50.660;7.834;2022-12-17T00:34:59;55.00;;;20.40;;
3795;SDS011;1913;50.660;7.834;2022-12-17T00:37:44;50.67;;;21.33;;
3795;SDS011;1913;50.660;7.834;2022-12-17T00:40:29;56.50;;;20.70;;
3795;SDS011;1913;50.660;7.834;2022-12-17T00:43:13;53.17;;;20.57;;
3795;SDS011;1913;50.660;7.834;2022-12-17T00:45:57;54.40;;;20.77;;
3795;SDS011;1913;50.660;7.834;2022-12-17T00:48:42;51.40;;;20.00;;
3795;SDS011;1913;50.660;7.834;2022-12-17T00:51:27;47.17;;;20.20;;
3795;SDS011;1913;50.660;7.834;2022-12-17T00:54:14;48.40;;;20.37;;
3795;SDS011;1913;50.660;7.834;2022-12-17T00:56:58;46.43;;;18.17;;
3795;SDS011;1913;50.660;7.834;2022-12-17T00:59:42;47.03;;;19.10;;
3795;SDS011;1913;50.660;7.834;2022-12-17T01:02:30;48.30;;;19.80;;
3795;SDS011;1913;50.660;7.834;2022-12-17T01:05:14;37.63;;;15.60;;
3795;SDS011;1913;50.660;7.834;2022-12-17T01:08:05;33.83;;;14.40;;
3795;SDS011;1913;50.660;7.834;2022-12-17T01:10:52;42.73;;;14.50;;
3795;SDS011;1913;50.660;7.834;2022-12-17T01:13:44;37.10;;;14.97;;
3795;SDS011;1913;50.660;7.834;2022-12-17T01:16:28;35.90;;;14.00;;
3795;SDS011;1913;50.660;7.834;2022-12-17T01:19:17;35.63;;;14.63;;
3795;SDS011;1913;50.660;7.834;2022-12-17T01:22:01;36.23;;;12.53;;
3795;SDS011;1913;50.660;7.834;2022-12-17T01:24:46;32.50;;;12.80;;
3795;SDS011;1913;50.660;7.834;2022-12-17T01:27:32;31.90;;;12.33;;
3795;SDS011;1913;50.660;7.834;2022-12-17T01:30:16;33.93;;;13.50;;
3795;SDS011;1913;50.660;7.834;2022-12-17T01:33:01;38.10;;;16.20;;
3795;SDS011;1913;50.660;7.834;2022-12-17T01:35:47;44.23;;;16.80;;
3795;SDS011;1913;50.660;7.834;2022-12-17T01:38:31;60.43;;;19.13;;
3795;SDS011;1913;50.660;7.834;2022-12-17T01:41:15;42.30;;;17.70;;
3795;SDS011;1913;50.660;7.834;2022-12-17T01:44:33;51.40;;;18.53;;
3795;SDS011;1913;50.660;7.834;2022-12-17T01:47:29;26.33;;;10.77;;
3795;SDS011;1913;50.660;7.834;2022-12-17T01:50:20;32.77;;;12.03;;
3795;SDS011;1913;50.660;7.834;2022-12-17T01:53:06;30.67;;;12.27;;
3795;SDS011;1913;50.660;7.834;2022-12-17T01:55:52;31.00;;;12.40;;
3795;SDS011;1913;50.660;7.834;2022-12-17T01:58:37;29.37;;;12.13;;
3795;SDS011;1913;50.660;7.834;2022-12-17T02:01:24;18.23;;;9.07;;
3795;SDS011;1913;50.660;7.834;2022-12-17T02:04:09;24.67;;;9.90;;
3795;SDS011;1913;50.660;7.834;2022-12-17T02:07:03;25.10;;;10.37;;
3795;SDS011;1913;50.660;7.834;2022-12-17T02:10:19;21.70;;;9.63;;
3795;SDS011;1913;50.660;7.834;2022-12-17T02:13:12;24.40;;;9.57;;
3795;SDS011;1913;50.660;7.834;2022-12-17T02:19:16;21.63;;;9.63;;
3795;SDS011;1913;50.660;7.834;2022-12-17T02:22:17;24.97;;;9.77;;
3795;SDS011;1913;50.660;7.834;2022-12-17T02:25:15;20.17;;;9.10;;
3795;SDS011;1913;50.660;7.834;2022-12-17T02:28:08;24.33;;;9.87;;
3795;SDS011;1913;50.660;7.834;2022-12-17T02:30:55;18.80;;;9.17;;
3795;SDS011;1913;50.660;7.834;2022-12-17T02:33:40;15.23;;;7.60;;
3795;SDS011;1913;50.660;7.834;2022-12-17T02:36:25;15.60;;;7.47;;
3795;SDS011;1913;50.660;7.834;2022-12-17T02:39:09;15.90;;;7.40;;
3795;SDS011;1913;50.660;7.834;2022-12-17T02:41:59;14.97;;;6.50;;
3795;SDS011;1913;50.660;7.834;2022-12-17T02:44:46;19.13;;;8.47;;
3795;SDS011;1913;50.660;7.834;2022-12-17T02:47:34;16.90;;;7.50;;
3795;SDS011;1913;50.660;7.834;2022-12-17T02:50:21;17.30;;;8.13;;
3795;SDS011;1913;50.660;7.834;2022-12-17T02:53:06;19.20;;;8.27;;
3795;SDS011;1913;50.660;7.834;2022-12-17T02:55:51;19.87;;;7.90;;
3795;SDS011;1913;50.660;7.834;2022-12-17T02:58:35;22.07;;;8.43;;
3795;SDS011;1913;50.660;7.834;2022-12-17T03:01:19;19.80;;;8.70;;
3795;SDS011;1913;50.660;7.834;2022-12-17T03:04:03;25.23;;;9.03;;
3795;SDS011;1913;50.660;7.834;2022-12-17T03:06:48;13.60;;;6.73;;
3795;SDS011;1913;50.660;7.834;2022-12-17T03:09:32;13.80;;;5.53;;
3795;SDS011;1913;50.660;7.834;2022-12-17T03:12:17;12.07;;;5.00;;
3795;SDS011;1913;50.660;7.834;2022-12-17T03:15:01;10.80;;;5.27;;
3795;SDS011;1913;50.660;7.834;2022-12-17T03:17:45;8.80;;;4.30;;
3795;SDS011;1913;50.660;7.834;2022-12-17T03:20:30;8.47;;;4.33;;
3795;SDS011;1913;50.660;7.834;2022-12-17T03:23:14;10.80;;;5.07;;
3795;SDS011;1913;50.660;7.834;2022-12-17T03:25:59;10.37;;;4.60;;
3795;SDS011;1913;50.660;7.834;2022-12-17T03:28:44;9.70;;;5.37;;
3795;SDS011;1913;50.660;7.834;2022-12-17T03:31:28;16.30;;;6.40;;
3795;SDS011;1913;50.660;7.834;2022-12-17T03:34:13;10.23;;;5.47;;
3795;SDS011;1913;50.660;7.834;2022-12-17T03:37:09;8.67;;;5.13;;
3795;SDS011;1913;50.660;7.834;2022-12-17T03:39:53;12.67;;;5.10;;
3795;SDS011;1913;50.660;7.834;2022-12-17T03:42:37;9.80;;;5.40;;
3795;SDS011;1913;50.660;7.834;2022-12-17T03:45:22;15.73;;;6.20;;
3795;SDS011;1913;50.660;7.834;2022-12-17T03:48:07;11.67;;;5.80;;
3795;SDS011;1913;50.660;7.834;2022-12-17T03:50:54;12.23;;;5.90;;
3795;SDS011;1913;50.660;7.834;2022-12-17T03:53:38;12.40;;;6.00;;
3795;SDS011;1913;50.660;7.834;2022-12-17T03:56:23;9.13;;;5.07;;
3795;SDS011;1913;50.660;7.834;2022-12-17T03:59:07;9.10;;;4.93;;
3795;SDS011;1913;50.660;7.834;2022-12-17T04:01:52;8.10;;;4.90;;
3795;SDS011;1913;50.660;7.834;2022-12-17T04:04:36;9.83;;;5.27;;
3795;SDS011;1913;50.660;7.834;2022-12-17T04:07:20;9.53;;;4.90;;
3795;SDS011;1913;50.660;7.834;2022-12-17T04:10:04;7.83;;;4.57;;
3795;SDS011;1913;50.660;7.834;2022-12-17T04:12:49;8.23;;;4.10;;
3795;SDS011;1913;50.660;7.834;2022-12-17T04:15:33;8.37;;;4.67;;
3795;SDS011;1913;50.660;7.834;2022-12-17T04:18:25;9.93;;;5.13;;
3795;SDS011;1913;50.660;7.834;2022-12-17T04:21:11;12.00;;;5.07;;
3795;SDS011;1913;50.660;7.834;2022-12-17T04:23:56;11.27;;;5.90;;
3795;SDS011;1913;50.660;7.834;2022-12-17T04:26:40;9.73;;;5.30;;
3795;SDS011;1913;50.660;7.834;2022-12-17T04:29:24;11.87;;;5.53;;
3795;SDS011;1913;50.660;7.834;2022-12-17T04:32:09;13.50;;;5.83;;
3795;SDS011;1913;50.660;7.834;2022-12-17T04:34:53;7.43;;;4.20;;
3795;SDS011;1913;50.660;7.834;2022-12-17T04:37:37;9.83;;;5.53;;
3795;SDS011;1913;50.660;7.834;2022-12-17T04:40:21;7.83;;;4.43;;
3795;SDS011;1913;50.660;7.834;2022-12-17T04:43:06;17.27;;;7.53;;
3795;SDS011;1913;50.660;7.834;2022-12-17T04:45:52;20.33;;;7.73;;
3795;SDS011;1913;50.660;7.834;2022-12-17T04:48:39;19.20;;;9.33;;
3795;SDS011;1913;50.660;7.834;2022-12-17T04:51:24;20.70;;;9.43;;
3795;SDS011;1913;50.660;7.834;2022-12-17T04:54:08;19.37;;;9.20;;
3795;SDS011;1913;50.660;7.834;2022-12-17T04:56:53;20.03;;;9.33;;
3795;SDS011;1913;50.660;7.834;2022-12-17T04:59:37;21.27;;;10.27;;
3795;SDS011;1913;50.660;7.834;2022-12-17T05:02:21;25.90;;;10.47;;
3795;SDS011;1913;50.660;7.834;2022-12-17T05:05:05;28.83;;;12.00;;
3795;SDS011;1913;50.660;7.834;2022-12-17T05:07:53;29.27;;;12.20;;
3795;SDS011;1913;50.660;7.834;2022-12-17T05:10:41;26.67;;;10.63;;
3795;SDS011;1913;50.660;7.834;2022-12-17T05:13:25;36.50;;;12.63;;
3795;SDS011;1913;50.660;7.834;2022-12-17T05:16:10;25.33;;;11.07;;
3795;SDS011;1913;50.660;7.834;2022-12-17T05:18:54;27.03;;;11.97;;
3795;SDS011;1913;50.660;7.834;2022-12-17T05:21:38;29.00;;;10.80;;
3795;SDS011;1913;50.660;7.834;2022-12-17T05:24:22;29.03;;;10.30;;
3795;SDS011;1913;50.660;7.834;2022-12-17T05:27:06;29.63;;;11.37;;
3795;SDS011;1913;50.660;7.834;2022-12-17T05:29:50;25.63;;;10.70;;
3795;SDS011;1913;50.660;7.834;2022-12-17T05:32:34;22.27;;;10.47;;
3795;SDS011;1913;50.660;7.834;2022-12-17T05:35:19;23.67;;;10.07;;
3795;SDS011;1913;50.660;7.834;2022-12-17T05:38:03;21.80;;;10.57;;
3795;SDS011;1913;50.660;7.834;2022-12-17T05:40:49;19.33;;;8.50;;
3795;SDS011;1913;50.660;7.834;2022-12-17T05:43:34;37.83;;;10.93;;
3795;SDS011;1913;50.660;7.834;2022-12-17T05:46:18;28.80;;;10.17;;
3795;SDS011;1913;50.660;7.834;2022-12-17T05:49:02;36.20;;;10.10;;
3795;SDS011;1913;50.660;7.834;2022-12-17T05:51:46;29.47;;;9.30;;
3795;SDS011;1913;50.660;7.834;2022-12-17T05:54:31;29.90;;;9.70;;
3795;SDS011;1913;50.660;7.834;2022-12-17T05:57:15;32.77;;;10.80;;
3795;SDS011;1913;50.660;7.834;2022-12-17T05:59:59;27.13;;;9.13;;
3795;SDS011;1913;50.660;7.834;2022-12-17T06:02:46;33.33;;;8.70;;
3795;SDS011;1913;50.660;7.834;2022-12-17T06:05:30;28.83;;;8.40;;
3795;SDS011;1913;50.660;7.834;2022-12-17T06:08:14;34.93;;;9.67;;
3795;SDS011;1913;50.660;7.834;2022-12-17T06:10:59;28.27;;;8.87;;
3795;SDS011;1913;50.660;7.834;2022-12-17T06:13:43;25.33;;;8.30;;
3795;SDS011;1913;50.660;7.834;2022-12-17T06:16:27;28.23;;;9.93;;
3795;SDS011;1913;50.660;7.834;2022-12-17T06:19:11;30.63;;;9.73;;
3795;SDS011;1913;50.660;7.834;2022-12-17T06:21:56;31.67;;;9.83;;
3795;SDS011;1913;50.660;7.834;2022-12-17T06:24:40;29.23;;;9.10;;
3795;SDS011;1913;50.660;7.834;2022-12-17T06:27:24;27.27;;;8.40;;
3795;SDS011;1913;50.660;7.834;2022-12-17T06:30:09;26.07;;;9.00;;
3795;SDS011;1913;50.660;7.834;2022-12-17T06:33:05;27.40;;;7.60;;
3795;SDS011;1913;50.660;7.834;2022-12-17T06:35:51;19.33;;;7.10;;
3795;SDS011;1913;50.660;7.834;2022-12-17T06:38:36;21.07;;;7.33;;
3795;SDS011;1913;50.660;7.834;2022-12-17T06:41:20;29.33;;;7.53;;
3795;SDS011;1913;50.660;7.834;2022-12-17T06:44:04;29.60;;;7.90;;
3795;SDS011;1913;50.660;7.834;2022-12-17T06:46:51;20.77;;;6.33;;
3795;SDS011;1913;50.660;7.834;2022-12-17T06:49:35;12.83;;;5.37;;
3795;SDS011;1913;50.660;7.834;2022-12-17T06:52:19;15.17;;;6.03;;
3795;SDS011;1913;50.660;7.834;2022-12-17T06:55:03;20.43;;;5.87;;
3795;SDS011;1913;50.660;7.834;2022-12-17T06:57:53;16.10;;;6.17;;
3795;SDS011;1913;50.660;7.834;2022-12-17T07:00:41;15.77;;;5.80;;
3795;SDS011;1913;50.660;7.834;2022-12-17T07:03:26;19.53;;;5.67;;
3795;SDS011;1913;50.660;7.834;2022-12-17T07:06:10;16.40;;;6.60;;
3795;SDS011;1913;50.660;7.834;2022-12-17T07:08:54;20.10;;;6.40;;
3795;SDS011;1913;50.660;7.834;2022-12-17T07:11:38;24.87;;;7.40;;
3795;SDS011;1913;50.660;7.834;2022-12-17T07:14:22;19.53;;;7.93;;
3795;SDS011;1913;50.660;7.834;2022-12-17T07:17:07;14.93;;;5.60;;
3795;SDS011;1913;50.660;7.834;2022-12-17T07:19:51;14.10;;;5.80;;
3795;SDS011;1913;50.660;7.834;2022-12-17T07:22:35;16.47;;;5.87;;
3795;SDS011;1913;50.660;7.834;2022-12-17T07:25:20;14.40;;;5.63;;
3795;SDS011;1913;50.660;7.834;2022-12-17T07:28:04;15.27;;;7.00;;
3795;SDS011;1913;50.660;7.834;2022-12-17T07:30:48;18.70;;;6.77;;
3795;SDS011;1913;50.660;7.834;2022-12-17T07:33:32;16.50;;;5.30;;
3795;SDS011;1913;50.660;7.834;2022-12-17T07:36:20;16.10;;;5.20;;
3795;SDS011;1913;50.660;7.834;2022-12-17T07:39:06;15.13;;;5.50;;
3795;SDS011;1913;50.660;7.834;2022-12-17T07:41:50;13.70;;;4.90;;
3795;SDS011;1913;50.660;7.834;2022-12-17T07:44:35;14.40;;;5.23;;
3795;SDS011;1913;50.660;7.834;2022-12-17T07:47:19;13.60;;;5.17;;
3795;SDS011;1913;50.660;7.834;2022-12-17T07:50:03;11.70;;;5.30;;
3795;SDS011;1913;50.660;7.834;2022-12-17T07:52:57;15.60;;;5.57;;
3795;SDS011;1913;50.660;7.834;2022-12-17T07:55:42;18.70;;;6.70;;
3795;SDS011;1913;50.660;7.834;2022-12-17T07:58:26;16.33;;;5.90;;
3795;SDS011;1913;50.660;7.834;2022-12-17T08:01:10;12.00;;;5.93;;
3795;SDS011;1913;50.660;7.834;2022-12-17T08:03:55;16.63;;;4.83;;
3795;SDS011;1913;50.660;7.834;2022-12-17T08:06:39;13.67;;;6.53;;
3795;SDS011;1913;50.660;7.834;2022-12-17T08:09:23;14.03;;;6.27;;
3795;SDS011;1913;50.660;7.834;2022-12-17T08:12:08;13.70;;;5.83;;
3795;SDS011;1913;50.660;7.834;2022-12-17T08:14:52;11.63;;;4.77;;
3795;SDS011;1913;50.660;7.834;2022-12-17T08:17:50;13.50;;;5.60;;
3795;SDS011;1913;50.660;7.834;2022-12-17T08:20:34;12.07;;;5.80;;
3795;SDS011;1913;50.660;7.834;2022-12-17T08:23:19;15.20;;;7.33;;
3795;SDS011;1913;50.660;7.834;2022-12-17T08:26:03;12.87;;;6.30;;
3795;SDS011;1913;50.660;7.834;2022-12-17T08:28:51;12.73;;;6.17;;
3795;SDS011;1913;50.660;7.834;2022-12-17T08:31:36;10.83;;;5.13;;
3795;SDS011;1913;50.660;7.834;2022-12-17T08:34:20;11.60;;;5.30;;
3795;SDS011;1913;50.660;7.834;2022-12-17T08:37:07;13.93;;;6.17;;
3795;SDS011;1913;50.660;7.834;2022-12-17T08:39:52;12.60;;;6.07;;
3795;SDS011;1913;50.660;7.834;2022-12-17T08:42:36;10.73;;;5.70;;
3795;SDS011;1913;50.660;7.834;2022-12-17T08:45:20;10.30;;;5.77;;
3795;SDS011;1913;50.660;7.834;2022-12-17T08:48:05;12.57;;;6.07;;
3795;SDS011;1913;50.660;7.834;2022-12-17T08:50:52;8.37;;;5.27;;
3795;SDS011;1913;50.660;7.834;2022-12-17T08:53:37;9.03;;;5.43;;
3795;SDS011;1913;50.660;7.834;2022-12-17T08:56:21;9.93;;;4.93;;
3795;SDS011;1913;50.660;7.834;2022-12-17T08:59:05;24.70;;;12.40;;
3795;SDS011;1913;50.660;7.834;2022-12-17T09:01:49;33.23;;;16.60;;
3795;SDS011;1913;50.660;7.834;2022-12-17T09:04:33;30.10;;;14.10;;
3795;SDS011;1913;50.660;7.834;2022-12-17T09:07:18;14.47;;;9.10;;
3795;SDS011;1913;50.660;7.834;2022-12-17T09:10:02;14.87;;;8.57;;
3795;SDS011;1913;50.660;7.834;2022-12-17T09:12:49;15.57;;;8.50;;
3795;SDS011;1913;50.660;7.834;2022-12-17T09:15:33;14.50;;;8.63;;
3795;SDS011;1913;50.660;7.834;2022-12-17T09:18:20;15.63;;;7.90;;
3795;SDS011;1913;50.660;7.834;2022-12-17T09:21:08;15.80;;;7.80;;
3795;SDS011;1913;50.660;7.834;2022-12-17T09:23:55;14.13;;;7.93;;
3795;SDS011;1913;50.660;7.834;2022-12-17T09:26:42;13.97;;;7.67;;
3795;SDS011;1913;50.660;7.834;2022-12-17T09:29:26;12.77;;;7.97;;
3795;SDS011;1913;50.660;7.834;2022-12-17T09:32:10;14.73;;;7.67;;
3795;SDS011;1913;50.660;7.834;2022-12-17T09:34:54;14.37;;;7.20;;
3795;SDS011;1913;50.660;7.834;2022-12-17T09:37:41;14.03;;;7.60;;
3795;SDS011;1913;50.660;7.834;2022-12-17T09:40:25;14.07;;;7.40;;
3795;SDS011;1913;50.660;7.834;2022-12-17T09:43:21;13.00;;;7.73;;
3795;SDS011;1913;50.660;7.834;2022-12-17T09:46:21;16.13;;;8.33;;
3795;SDS011;1913;50.660;7.834;2022-12-17T09:49:22;12.20;;;7.80;;
3795;SDS011;1913;50.660;7.834;2022-12-17T09:52:22;15.83;;;8.43;;
3795;SDS011;1913;50.660;7.834;2022-12-17T09:58:02;14.63;;;7.30;;
3795;SDS011;1913;50.660;7.834;2022-12-17T10:00:47;12.50;;;7.80;;
3795;SDS011;1913;50.660;7.834;2022-12-17T10:03:32;12.73;;;8.50;;
3795;SDS011;1913;50.660;7.834;2022-12-17T10:06:21;12.33;;;7.03;;
3795;SDS011;1913;50.660;7.834;2022-12-17T10:09:10;11.40;;;6.27;;
3795;SDS011;1913;50.660;7.834;2022-12-17T10:11:57;9.23;;;6.03;;
3795;SDS011;1913;50.660;7.834;2022-12-17T10:14:45;10.27;;;5.97;;
3795;SDS011;1913;50.660;7.834;2022-12-17T10:17:30;8.10;;;5.50;;
3795;SDS011;1913;50.660;7.834;2022-12-17T10:20:22;7.53;;;5.27;;
3795;SDS011;1913;50.660;7.834;2022-12-17T10:23:07;17.13;;;10.83;;
3795;SDS011;1913;50.660;7.834;2022-12-17T10:25:53;19.27;;;12.07;;
3795;SDS011;1913;50.660;7.834;2022-12-17T10:28:38;21.50;;;13.07;;
3795;SDS011;1913;50.660;7.834;2022-12-17T10:31:27;21.30;;;13.50;;
3795;SDS011;1913;50.660;7.834;2022-12-17T10:34:21;22.53;;;13.57;;
3795;SDS011;1913;50.660;7.834;2022-12-17T10:37:14;20.37;;;12.03;;
3795;SDS011;1913;50.660;7.834;2022-12-17T10:40:03;17.90;;;11.57;;
3795;SDS011;1913;50.660;7.834;2022-12-17T10:43:00;21.13;;;15.00;;
3795;SDS011;1913;50.660;7.834;2022-12-17T10:45:51;17.00;;;11.83;;
3795;SDS011;1913;50.660;7.834;2022-12-17T10:48:36;22.60;;;13.90;;
3795;SDS011;1913;50.660;7.834;2022-12-17T10:51:27;22.00;;;14.87;;
3795;SDS011;1913;50.660;7.834;2022-12-17T11:06:19;19.23;;;12.70;;
3795;SDS011;1913;50.660;7.834;2022-12-17T11:09:22;24.73;;;13.53;;
3795;SDS011;1913;50.660;7.834;2022-12-17T11:12:12;25.37;;;15.80;;
3795;SDS011;1913;50.660;7.834;2022-12-17T11:15:00;23.90;;;14.17;;
3795;SDS011;1913;50.660;7.834;2022-12-17T11:18:05;20.57;;;13.43;;
3795;SDS011;1913;50.660;7.834;2022-12-17T11:20:57;17.90;;;11.93;;
3795;SDS011;1913;50.660;7.834;2022-12-17T11:23:48;18.60;;;11.60;;
3795;SDS011;1913;50.660;7.834;2022-12-17T11:26:36;18.10;;;11.33;;
3795;SDS011;1913;50.660;7.834;2022-12-17T11:29:22;20.60;;;11.30;;
3795;SDS011;1913;50.660;7.834;2022-12-17T11:32:12;15.20;;;10.47;;
3795;SDS011;1913;50.660;7.834;2022-12-17T11:35:27;9.07;;;5.77;;
3795;SDS011;1913;50.660;7.834;2022-12-17T11:38:36;11.70;;;6.73;;
3795;SDS011;1913;50.660;7.834;2022-12-17T11:47:36;8.00;;;4.17;;
3795;SDS011;1913;50.660;7.834;2022-12-17T11:50:43;8.20;;;4.80;;
3795;SDS011;1913;50.660;7.834;2022-12-17T11:56:43;7.33;;;4.20;;
3795;SDS011;1913;50.660;7.834;2022-12-17T11:59:34;6.37;;;4.17;;
3795;SDS011;1913;50.660;7.834;2022-12-17T12:15:16;5.17;;;3.33;;
3795;SDS011;1913;50.660;7.834;2022-12-17T12:17:51;8.80;;;3.50;;
3795;SDS011;1913;50.660;7.834;2022-12-17T12:21:07;5.60;;;3.20;;
3795;SDS011;1913;50.660;7.834;2022-12-17T12:30:09;4.60;;;2.50;;
3795;SDS011;1913;50.660;7.834;2022-12-17T12:35:58;3.60;;;2.50;;
3795;SDS011;1913;50.660;7.834;2022-12-17T12:38:50;4.20;;;2.93;;
3795;SDS011;1913;50.660;7.834;2022-12-17T12:41:52;5.37;;;2.90;;
3795;SDS011;1913;50.660;7.834;2022-12-17T12:44:58;3.73;;;2.70;;
3795;SDS011;1913;50.660;7.834;2022-12-17T12:48:16;4.37;;;2.80;;
3795;SDS011;1913;50.660;7.834;2022-12-17T12:51:34;5.77;;;2.73;;
3795;SDS011;1913;50.660;7.834;2022-12-17T13:03:07;4.60;;;2.67;;
3795;SDS011;1913;50.660;7.834;2022-12-17T13:05:58;5.10;;;2.80;;
3795;SDS011;1913;50.660;7.834;2022-12-17T13:08:24;5.80;;;2.80;;
3795;SDS011;1913;50.660;7.834;2022-12-17T13:10:50;5.40;;;2.90;;
3795;SDS011;1913;50.660;7.834;2022-12-17T13:16:00;6.70;;;3.27;;
3795;SDS011;1913;50.660;7.834;2022-12-17T13:18:48;5.13;;;3.13;;
3795;SDS011;1913;50.660;7.834;2022-12-17T13:23:39;5.93;;;2.70;;
3795;SDS011;1913;50.660;7.834;2022-12-17T13:29:10;6.00;;;2.93;;
3795;SDS011;1913;50.660;7.834;2022-12-17T13:31:47;5.03;;;2.60;;
3795;SDS011;1913;50.660;7.834;2022-12-17T13:37:31;8.73;;;3.87;;
3795;SDS011;1913;50.660;7.834;2022-12-17T13:42:48;4.80;;;2.80;;
3795;SDS011;1913;50.660;7.834;2022-12-17T13:45:15;3.57;;;2.30;;
3795;SDS011;1913;50.660;7.834;2022-12-17T13:47:42;4.27;;;2.90;;
3795;SDS011;1913;50.660;7.834;2022-12-17T13:50:21;5.90;;;3.47;;
3795;SDS011;1913;50.660;7.834;2022-12-17T13:52:48;13.30;;;3.57;;
3795;SDS011;1913;50.660;7.834;2022-12-17T13:55:18;5.63;;;3.40;;
3795;SDS011;1913;50.660;7.834;2022-12-17T13:57:47;5.40;;;3.20;;
3795;SDS011;1913;50.660;7.834;2022-12-17T14:00:21;4.57;;;3.37;;
3795;SDS011;1913;50.660;7.834;2022-12-17T14:02:52;8.63;;;3.97;;
3795;SDS011;1913;50.660;7.834;2022-12-17T14:07:49;5.40;;;3.47;;
3795;SDS011;1913;50.660;7.834;2022-12-17T14:10:15;6.57;;;4.43;;
3795;SDS011;1913;50.660;7.834;2022-12-17T14:12:42;5.10;;;3.60;;
3795;SDS011;1913;50.660;7.834;2022-12-17T14:15:16;7.37;;;4.00;;
3795;SDS011;1913;50.660;7.834;2022-12-17T14:17:48;6.20;;;3.60;;
3795;SDS011;1913;50.660;7.834;2022-12-17T14:20:16;9.27;;;4.20;;
3795;SDS011;1913;50.660;7.834;2022-12-17T14:22:50;6.93;;;3.70;;
3795;SDS011;1913;50.660;7.834;2022-12-17T14:25:22;11.97;;;4.57;;
3795;SDS011;1913;50.660;7.834;2022-12-17T14:30:44;7.13;;;4.40;;
3795;SDS011;1913;50.660;7.834;2022-12-17T14:33:23;8.17;;;4.30;;
3795;SDS011;1913;50.660;7.834;2022-12-17T14:35:54;7.67;;;4.13;;
3795;SDS011;1913;50.660;7.834;2022-12-17T14:38:21;8.90;;;4.10;;
3795;SDS011;1913;50.660;7.834;2022-12-17T14:40:49;7.90;;;4.40;;
3795;SDS011;1913;50.660;7.834;2022-12-17T14:43:24;9.70;;;4.60;;
3795;SDS011;1913;50.660;7.834;2022-12-17T14:45:56;8.23;;;4.17;;
3795;SDS011;1913;50.660;7.834;2022-12-17T14:48:42;9.10;;;4.83;;
3795;SDS011;1913;50.660;7.834;2022-12-17T14:51:36;5.73;;;3.90;;
3795;SDS011;1913;50.660;7.834;2022-12-17T14:56:50;9.57;;;4.43;;
3795;SDS011;1913;50.660;7.834;2022-12-17T14:59:24;8.00;;;4.40;;
3795;SDS011;1913;50.660;7.834;2022-12-17T15:01:56;9.70;;;4.70;;
3795;SDS011;1913;50.660;7.834;2022-12-17T15:04:25;10.30;;;4.93;;
3795;SDS011;1913;50.660;7.834;2022-12-17T15:06:52;10.50;;;5.20;;
3795;SDS011;1913;50.660;7.834;2022-12-17T15:09:19;9.47;;;4.70;;
3795;SDS011;1913;50.660;7.834;2022-12-17T15:11:44;13.40;;;5.43;;
3795;SDS011;1913;50.660;7.834;2022-12-17T15:14:10;11.83;;;6.70;;
3795;SDS011;1913;50.660;7.834;2022-12-17T15:16:35;11.00;;;5.97;;
3795;SDS011;1913;50.660;7.834;2022-12-17T15:19:01;11.03;;;6.13;;
3795;SDS011;1913;50.660;7.834;2022-12-17T15:21:26;13.47;;;6.50;;
3795;SDS011;1913;50.660;7.834;2022-12-17T15:23:52;11.87;;;6.70;;
3795;SDS011;1913;50.660;7.834;2022-12-17T15:26:18;14.63;;;5.83;;
3795;SDS011;1913;50.660;7.834;2022-12-17T15:28:44;9.80;;;5.40;;
3795;SDS011;1913;50.660;7.834;2022-12-17T15:31:10;11.83;;;5.63;;
3795;SDS011;1913;50.660;7.834;2022-12-17T15:33:38;12.30;;;5.90;;
3795;SDS011;1913;50.660;7.834;2022-12-17T15:36:04;12.63;;;6.10;;
3795;SDS011;1913;50.660;7.834;2022-12-17T15:38:30;9.50;;;5.00;;
3795;SDS011;1913;50.660;7.834;2022-12-17T15:40:58;10.03;;;5.73;;
3795;SDS011;1913;50.660;7.834;2022-12-17T15:43:23;11.67;;;6.57;;
3795;SDS011;1913;50.660;7.834;2022-12-17T15:45:50;12.17;;;6.27;;
3795;SDS011;1913;50.660;7.834;2022-12-17T15:48:19;13.43;;;6.23;;
3795;SDS011;1913;50.660;7.834;2022-12-17T15:50:47;10.23;;;6.10;;
3795;SDS011;1913;50.660;7.834;2022-12-17T15:53:13;12.50;;;5.70;;
3795;SDS011;1913;50.660;7.834;2022-12-17T15:55:39;13.17;;;5.60;;
3795;SDS011;1913;50.660;7.834;2022-12-17T15:58:05;10.90;;;5.10;;
3795;SDS011;1913;50.660;7.834;2022-12-17T16:00:31;12.37;;;5.80;;
3795;SDS011;1913;50.660;7.834;2022-12-17T16:02:56;13.23;;;6.80;;
3795;SDS011;1913;50.660;7.834;2022-12-17T16:05:22;13.40;;;6.37;;
3795;SDS011;1913;50.660;7.834;2022-12-17T16:07:48;13.27;;;6.57;;
3795;SDS011;1913;50.660;7.834;2022-12-17T16:10:14;12.00;;;6.20;;
3795;SDS011;1913;50.660;7.834;2022-12-17T16:12:40;11.93;;;6.50;;
3795;SDS011;1913;50.660;7.834;2022-12-17T16:15:05;14.90;;;6.50;;
3795;SDS011;1913;50.660;7.834;2022-12-17T16:17:32;12.37;;;5.57;;
3795;SDS011;1913;50.660;7.834;2022-12-17T16:19:58;9.67;;;5.50;;
3795;SDS011;1913;50.660;7.834;2022-12-17T16:22:25;9.43;;;5.20;;
3795;SDS011;1913;50.660;7.834;2022-12-17T16:24:51;8.60;;;5.50;;
3795;SDS011;1913;50.660;7.834;2022-12-17T16:27:16;11.83;;;5.93;;
3795;SDS011;1913;50.660;7.834;2022-12-17T16:29:43;11.03;;;5.47;;
3795;SDS011;1913;50.660;7.834;2022-12-17T16:32:09;14.97;;;5.00;;
3795;SDS011;1913;50.660;7.834;2022-12-17T16:34:35;12.17;;;6.00;;
3795;SDS011;1913;50.660;7.834;2022-12-17T16:37:00;8.73;;;5.00;;
3795;SDS011;1913;50.660;7.834;2022-12-17T16:39:26;8.90;;;5.40;;
3795;SDS011;1913;50.660;7.834;2022-12-17T16:41:51;10.00;;;5.80;;
3795;SDS011;1913;50.660;7.834;2022-12-17T16:44:16;12.47;;;5.73;;
3795;SDS011;1913;50.660;7.834;2022-12-17T16:46:45;9.90;;;4.80;;
3795;SDS011;1913;50.660;7.834;2022-12-17T16:49:11;11.50;;;4.93;;
3795;SDS011;1913;50.660;7.834;2022-12-17T16:51:45;11.50;;;5.40;;
3795;SDS011;1913;50.660;7.834;2022-12-17T16:54:17;9.50;;;4.80;;
3795;SDS011;1913;50.660;7.834;2022-12-17T16:56:45;9.67;;;5.03;;
3795;SDS011;1913;50.660;7.834;2022-12-17T16:59:12;7.87;;;4.70;;
3795;SDS011;1913;50.660;7.834;2022-12-17T17:01:39;13.53;;;5.43;;
3795;SDS011;1913;50.660;7.834;2022-12-17T17:04:06;12.97;;;5.13;;
3795;SDS011;1913;50.660;7.834;2022-12-17T17:06:43;11.70;;;5.23;;
3795;SDS011;1913;50.660;7.834;2022-12-17T17:09:11;10.57;;;5.43;;
3795;SDS011;1913;50.660;7.834;2022-12-17T17:11:37;13.93;;;4.73;;
3795;SDS011;1913;50.660;7.834;2022-12-17T17:14:03;12.10;;;5.80;;
3795;SDS011;1913;50.660;7.834;2022-12-17T17:16:29;11.03;;;5.73;;
3795;SDS011;1913;50.660;7.834;2022-12-17T17:18:55;11.13;;;6.60;;
3795;SDS011;1913;50.660;7.834;2022-12-17T17:21:22;10.73;;;5.73;;
3795;SDS011;1913;50.660;7.834;2022-12-17T17:23:58;15.07;;;6.67;;
3795;SDS011;1913;50.660;7.834;2022-12-17T17:26:29;16.17;;;7.07;;
3795;SDS011;1913;50.660;7.834;2022-12-17T17:28:57;13.83;;;6.13;;
3795;SDS011;1913;50.660;7.834;2022-12-17T17:31:22;13.33;;;7.20;;
3795;SDS011;1913;50.660;7.834;2022-12-17T17:33:49;15.20;;;6.40;;
3795;SDS011;1913;50.660;7.834;2022-12-17T17:38:52;14.87;;;6.80;;
3795;SDS011;1913;50.660;7.834;2022-12-17T17:41:19;12.23;;;6.13;;
3795;SDS011;1913;50.660;7.834;2022-12-17T17:43:46;15.60;;;7.30;;
3795;SDS011;1913;50.660;7.834;2022-12-17T17:46:17;12.57;;;6.30;;
3795;SDS011;1913;50.660;7.834;2022-12-17T17:48:43;14.00;;;6.10;;
3795;SDS011;1913;50.660;7.834;2022-12-17T17:51:11;11.10;;;6.03;;
3795;SDS011;1913;50.660;7.834;2022-12-17T17:53:42;16.13;;;6.03;;